Point Vicente — WDB9763 — position and weather

sailwx.info

Track history (hours):
 
Tides and Currents Weather Stations Pressure Air Temp Water Temp Dewpoint Dewpoint Depression Visibility Wind Speed Wind Dir Waves Ship Positions

Point Vicente

Owner: Foss Maritime Company, Seattle, WA. More information available from US FCC via Universal Licensing System and Coast Guard Vessel Documentation Center.

Last reported at 2014-Oct-22 23:34 UTC. Time now 2014-Oct-22 23:56 UTC.
Position N 37°59' W 122°26'.

Length 32 m; draft 4.3 m.

Type: Tug. MMSI: 366982330.

Date/timePositionNaut miles runAvg speedWind from/ knotsBaromVisibWave heightAir tempDewpointWater temp
2014-Oct-22 23:34N 37°59' W 122°26'0 0.3
2014-Oct-22 22:32N 37°59' W 122°26'0 0.0
2014-Oct-22 21:32N 37°59' W 122°26'0 0.1
2014-Oct-22 20:32N 37°59' W 122°26'0 0.0
2014-Oct-22 19:32N 37°59' W 122°26'0 0.0
2014-Oct-22 18:32N 37°59' W 122°26'0 0.0
2014-Oct-22 17:32N 37°59' W 122°26'0 0.0
2014-Oct-22 16:32N 37°59' W 122°26'0 0.0
2014-Oct-22 15:32N 37°59' W 122°26'0 0.1
2014-Oct-22 14:33N 37°59' W 122°26'0 0.0
2014-Oct-22 13:33N 37°59' W 122°26'0 0.0
2014-Oct-22 12:33N 37°59' W 122°26'0 0.0
2014-Oct-22 11:33N 37°59' W 122°26'8 7.8
2014-Oct-22 10:33N 38°03' W 122°18'7 7.4
2014-Oct-22 09:33N 38°02' W 122°09'14 3.2
2014-Oct-22 05:18N 38°04' W 121°52'4 4.2
2014-Oct-22 04:28N 38°03' W 121°56'6 4.8
2014-Oct-22 03:18N 38°04' W 122°03'4 4.6
2014-Oct-22 02:27N 38°02' W 122°07'3 3.8
2014-Oct-22 01:33N 38°03' W 122°11'4 4.0
2014-Oct-22 00:33N 38°03' W 122°17'4 3.9
2014-Oct-21 23:33N 38°02' W 122°21'4 4.3
2014-Oct-21 22:33N 37°59' W 122°25'4 3.7
2014-Oct-21 21:33N 37°56' W 122°25'0 0.2
2014-Oct-21 20:32N 37°55' W 122°25'0 0.0
2014-Oct-21 19:33N 37°55' W 122°25'3 2.9
2014-Oct-21 18:33N 37°58' W 122°26'1 1.1
2014-Oct-21 17:32N 37°59' W 122°27'0 0.0
2014-Oct-21 16:29N 37°59' W 122°27'0 0.0
2014-Oct-21 15:32N 37°59' W 122°27'0 0.0
2014-Oct-21 14:29N 37°59' W 122°27'0 0.1
2014-Oct-21 13:33N 37°59' W 122°27'0 0.1
2014-Oct-21 12:32N 37°59' W 122°26'0 0.0
2014-Oct-21 11:33N 37°59' W 122°26'2 1.8
2014-Oct-21 10:33N 37°57' W 122°26'2 1.8
2014-Oct-21 09:33N 37°56' W 122°25'3 2.7
2014-Oct-21 08:32N 37°58' W 122°26'1 0.9
2014-Oct-21 07:33N 37°59' W 122°26'0 0.0
2014-Oct-21 06:30N 37°59' W 122°26'0 0.0
2014-Oct-21 05:33N 37°59' W 122°26'0 0.0
2014-Oct-21 04:30N 37°59' W 122°26'0 0.0
2014-Oct-21 03:33N 37°59' W 122°26'0 0.0
2014-Oct-21 02:30N 37°59' W 122°26'0 0.1
2014-Oct-21 01:33N 37°59' W 122°26'6 5.9
2014-Oct-21 00:33N 38°02' W 122°20'9 8.9
2014-Oct-20 23:32N 38°02' W 122°09'1 0.1
2014-Oct-20 17:10N 38°02' W 122°08'5 7.5
2014-Oct-20 16:33N 38°04' W 122°13'7 7.3
2014-Oct-20 15:33N 38°02' W 122°22'6 6.5
2014-Oct-20 14:33N 37°55' W 122°25'0 0.3
2014-Oct-20 13:31N 37°55' W 122°25'0 0.0
2014-Oct-20 12:31N 37°55' W 122°25'0 0.0
2014-Oct-20 11:31N 37°55' W 122°25'0 0.0
2014-Oct-20 10:31N 37°55' W 122°25'0 0.0
2014-Oct-20 09:31N 37°55' W 122°25'0 0.0
2014-Oct-20 08:31N 37°55' W 122°25'0 0.0
2014-Oct-20 07:31N 37°55' W 122°25'0 0.0
2014-Oct-20 06:31N 37°55' W 122°25'0 0.0
2014-Oct-20 05:31N 37°55' W 122°25'2 2.1
2014-Oct-20 04:33N 37°54' W 122°22'0 0.0
2014-Oct-20 03:33N 37°54' W 122°22'0 0.0
2014-Oct-20 02:33N 37°54' W 122°22'0 0.0
2014-Oct-20 01:33N 37°54' W 122°22'0 0.0
2014-Oct-20 00:33N 37°54' W 122°22'2 2.5
2014-Oct-19 23:34N 37°56' W 122°25'4 3.5
2014-Oct-19 22:31N 37°59' W 122°26'0 0.0
2014-Oct-19 21:28N 37°59' W 122°26'0 0.0
2014-Oct-19 20:31N 37°59' W 122°26'0 0.0
2014-Oct-19 19:28N 37°59' W 122°26'0 0.1
2014-Oct-19 18:31N 37°59' W 122°26'0 0.0
2014-Oct-19 17:31N 37°59' W 122°26'0 0.0
2014-Oct-19 16:31N 37°59' W 122°26'0 0.0
2014-Oct-19 15:31N 37°59' W 122°26'0 0.0
2014-Oct-19 14:31N 37°59' W 122°26'0 0.0
2014-Oct-19 13:28N 37°59' W 122°26'0 0.1
2014-Oct-19 12:31N 37°59' W 122°26'0 0.0
2014-Oct-19 11:31N 37°59' W 122°26'0 0.0
2014-Oct-19 10:31N 37°59' W 122°26'0 0.0
2014-Oct-19 09:31N 37°59' W 122°26'0 0.0
2014-Oct-19 08:31N 37°59' W 122°26'0 0.0
2014-Oct-19 07:31N 37°59' W 122°26'1 1.0
2014-Oct-19 06:33N 37°60' W 122°25'7 7.2
2014-Oct-19 05:33N 38°03' W 122°17'6 6.1
2014-Oct-19 04:34N 38°02' W 122°10'8 6.7
2014-Oct-19 03:25N 38°04' W 122°00'5 1.8
2014-Oct-19 00:19N 38°03' W 121°53'14 4.7
2014-Oct-18 21:24N 38°03' W 122°11'5 5.5
2014-Oct-18 20:33N 38°03' W 122°17'6 6.1
2014-Oct-18 19:33N 38°01' W 122°24'5 5.2
2014-Oct-18 18:34N 37°56' W 122°25'0 0.5
2014-Oct-18 17:33N 37°55' W 122°25'0 0.0
2014-Oct-18 16:33N 37°55' W 122°25'0 0.0
2014-Oct-18 15:33N 37°55' W 122°25'0 0.0
2014-Oct-18 14:33N 37°55' W 122°25'0 0.0
2014-Oct-18 13:33N 37°55' W 122°25'0 0.0
2014-Oct-18 12:33N 37°55' W 122°25'0 0.0
2014-Oct-18 11:33N 37°55' W 122°25'2 1.8
2014-Oct-18 10:33N 37°53' W 122°25'4 4.3
2014-Oct-18 09:33N 37°50' W 122°22'6 6.3
2014-Oct-18 08:34N 37°56' W 122°25'0 0.5
2014-Oct-18 07:33N 37°56' W 122°25'3 3.2
2014-Oct-18 06:31N 37°59' W 122°26'0 0.0
2014-Oct-18 05:31N 37°59' W 122°26'0 0.1
2014-Oct-18 04:31N 37°59' W 122°26'0 0.0
2014-Oct-18 03:31N 37°59' W 122°26'0 0.0
2014-Oct-18 02:31N 37°59' W 122°26'0 0.0
2014-Oct-18 01:31N 37°59' W 122°26'0 0.0
2014-Oct-18 00:19N 37°59' W 122°26'3 4.1
2014-Oct-17 23:33N 38°01' W 122°23'9 8.8
2014-Oct-17 22:33N 38°03' W 122°12'16 3.2
2014-Oct-17 17:32N 38°04' W 121°52'8 7.2
2014-Oct-17 16:25N 38°04' W 122°02'7 7.1
2014-Oct-17 15:27N 38°03' W 122°11'7 7.5
2014-Oct-17 14:33N 38°03' W 122°19'7 7.1
2014-Oct-17 13:33N 37°58' W 122°26'2 1.7
2014-Oct-17 12:33N 37°56' W 122°26'3 3.1
2014-Oct-17 11:32N 37°59' W 122°26'0 0.1
2014-Oct-17 10:32N 37°59' W 122°26'0 0.0
2014-Oct-17 09:32N 37°59' W 122°26'0 0.0
2014-Oct-17 08:32N 37°59' W 122°26'0 0.0
2014-Oct-17 07:29N 37°59' W 122°26'0 0.0
2014-Oct-17 06:32N 37°59' W 122°26'0 0.0
2014-Oct-17 05:29N 37°59' W 122°26'0 0.0
2014-Oct-17 04:32N 37°59' W 122°26'0 0.1
2014-Oct-17 03:32N 37°59' W 122°26'0 0.0
2014-Oct-17 02:32N 37°59' W 122°26'0 0.0
2014-Oct-17 01:32N 37°59' W 122°26'0 0.0
2014-Oct-17 00:32N 37°59' W 122°26'0 0.0
2014-Oct-16 23:32N 37°59' W 122°26'0 0.0
2014-Oct-16 22:32N 37°59' W 122°26'0 0.1
2014-Oct-16 21:32N 37°59' W 122°26'1 0.7
2014-Oct-16 20:34N 37°59' W 122°26'8 8.3
2014-Oct-16 19:33N 38°03' W 122°16'14 7.1
2014-Oct-16 17:33N 38°03' W 121°58'6 5.6
2014-Oct-16 16:33N 38°04' W 121°51'2 0.7
2014-Oct-16 13:33N 38°03' W 121°54'12 5.8
2014-Oct-16 11:31N 38°02' W 122°08'5 5.3
2014-Oct-16 10:33N 38°04' W 122°15'5 5.0
2014-Oct-16 09:33N 38°02' W 122°21'5 5.3
2014-Oct-16 08:33N 37°59' W 122°26'3 3.3
2014-Oct-16 07:33N 37°55' W 122°25'2 2.1
2014-Oct-16 06:33N 37°54' W 122°22'0 0.0
2014-Oct-16 05:33N 37°54' W 122°22'0 0.0
2014-Oct-16 04:33N 37°54' W 122°22'0 0.0
2014-Oct-16 03:33N 37°54' W 122°22'0 0.0
2014-Oct-16 02:33N 37°54' W 122°22'0 0.0
2014-Oct-16 01:33N 37°54' W 122°22'0 0.0
2014-Oct-16 00:33N 37°54' W 122°22'0 0.0
2014-Oct-15 23:33N 37°54' W 122°22'0 0.0
2014-Oct-15 22:33N 37°54' W 122°22'0 0.0
2014-Oct-15 21:33N 37°54' W 122°22'1 1.0
2014-Oct-15 20:33N 37°54' W 122°24'4 4.1
2014-Oct-15 19:33N 37°58' W 122°26'1 0.8
2014-Oct-15 18:25N 37°59' W 122°26'0 0.0
2014-Oct-15 17:28N 37°59' W 122°26'2 2.6
2014-Oct-15 16:33N 38°00' W 122°24'7 6.9
2014-Oct-15 15:33N 38°03' W 122°16'6 5.8
2014-Oct-15 14:33N 38°02' W 122°09'3 0.4
2014-Oct-15 06:33N 38°03' W 122°13'4 4.3
2014-Oct-15 05:33N 38°03' W 122°18'5 4.6
2014-Oct-15 04:33N 38°01' W 122°23'3 3.2
2014-Oct-15 03:33N 37°59' W 122°26'5 5.4
2014-Oct-15 02:33N 37°54' W 122°22'0 0.0
2014-Oct-15 01:33N 37°54' W 122°22'0 0.0
2014-Oct-15 00:33N 37°54' W 122°22'4 4.0
2014-Oct-14 23:33N 37°51' W 122°24'1 0.7
2014-Oct-14 22:33N 37°50' W 122°24'5 4.9
2014-Oct-14 21:33N 37°55' W 122°25'5 5.2
2014-Oct-14 20:33N 37°60' W 122°24'7 6.9
2014-Oct-14 19:33N 38°03' W 122°17'20 3.1
2014-Oct-14 13:20N 38°04' W 121°52'3 2.9
2014-Oct-14 12:17N 38°03' W 121°56'3 4.5
2014-Oct-14 11:33N 38°04' W 121°60'6 5.2
2014-Oct-14 10:19N 38°02' W 122°08'3 4.4
2014-Oct-14 09:33N 38°03' W 122°12'4 4.2
2014-Oct-14 08:33N 38°03' W 122°17'4 4.0
2014-Oct-14 07:33N 38°02' W 122°22'4 4.3
2014-Oct-14 06:34N 37°59' W 122°26'1 0.7
2014-Oct-14 05:33N 37°60' W 122°25'9 8.9
2014-Oct-14 04:33N 38°04' W 122°15'8 8.0
2014-Oct-14 03:33N 38°03' W 122°05'7 6.8
2014-Oct-14 02:33N 38°03' W 121°56'4 4.0
2014-Oct-14 01:30N 38°04' W 121°51'0 0.1
2014-Oct-13 22:26N 38°04' W 121°52'13 5.4
2014-Oct-13 20:05N 38°02' W 122°08'3 4.7
2014-Oct-13 19:33N 38°03' W 122°11'5 4.7
2014-Oct-13 18:33N 38°03' W 122°17'5 4.8
2014-Oct-13 17:33N 38°01' W 122°22'4 4.1
2014-Oct-13 16:33N 37°59' W 122°26'5 5.3
2014-Oct-13 15:33N 38°02' W 122°21'8 7.9
2014-Oct-13 14:33N 38°03' W 122°11'7 6.6
2014-Oct-13 13:29N 38°04' W 122°02'6 6.7
2014-Oct-13 12:33N 38°03' W 121°54'2 1.1
2014-Oct-13 10:29N 38°04' W 121°52'5 5.4
2014-Oct-13 09:29N 38°03' W 121°58'5 5.5
2014-Oct-13 08:33N 38°03' W 122°05'5 4.8
2014-Oct-13 07:33N 38°03' W 122°11'5 4.5
2014-Oct-13 06:33N 38°03' W 122°17'4 4.4
2014-Oct-13 05:33N 38°02' W 122°22'5 4.7
2014-Oct-13 04:33N 37°59' W 122°26'0 0.3
2014-Oct-13 03:33N 37°59' W 122°26'1 0.5
2014-Oct-13 02:33N 37°59' W 122°27'0 0.0
2014-Oct-13 01:33N 37°59' W 122°27'3 3.4
2014-Oct-13 00:33N 37°56' W 122°26'  
Track history (hours):
 
Tides and Currents Weather Stations Pressure Air Temp Water Temp Dewpoint Dewpoint Depression Visibility Wind Speed Wind Dir Waves Ship Positions

Point Vicente

Owner: Foss Maritime Company, Seattle, WA. More information available from US FCC via Universal Licensing System and Coast Guard Vessel Documentation Center.

Last reported at 2014-Oct-22 23:34 UTC. Time now 2014-Oct-22 23:56 UTC.
Position N 37°59' W 122°26'.

Length 32 m; draft 4.3 m.

Type: Tug. MMSI: 366982330.

Date/timePositionNaut miles runAvg speedWind from/ knotsBaromVisibWave heightAir tempDewpointWater temp
2014-Oct-22 23:34N 37°59' W 122°26'0 0.3
2014-Oct-22 22:32N 37°59' W 122°26'0 0.0
2014-Oct-22 21:32N 37°59' W 122°26'0 0.1
2014-Oct-22 20:32N 37°59' W 122°26'0 0.0
2014-Oct-22 19:32N 37°59' W 122°26'0 0.0
2014-Oct-22 18:32N 37°59' W 122°26'0 0.0
2014-Oct-22 17:32N 37°59' W 122°26'0 0.0
2014-Oct-22 16:32N 37°59' W 122°26'0 0.0
2014-Oct-22 15:32N 37°59' W 122°26'0 0.1
2014-Oct-22 14:33N 37°59' W 122°26'0 0.0
2014-Oct-22 13:33N 37°59' W 122°26'0 0.0
2014-Oct-22 12:33N 37°59' W 122°26'0 0.0
2014-Oct-22 11:33N 37°59' W 122°26'8 7.8
2014-Oct-22 10:33N 38°03' W 122°18'7 7.4
2014-Oct-22 09:33N 38°02' W 122°09'14 3.2
2014-Oct-22 05:18N 38°04' W 121°52'4 4.2
2014-Oct-22 04:28N 38°03' W 121°56'6 4.8
2014-Oct-22 03:18N 38°04' W 122°03'4 4.6
2014-Oct-22 02:27N 38°02' W 122°07'3 3.8
2014-Oct-22 01:33N 38°03' W 122°11'4 4.0
2014-Oct-22 00:33N 38°03' W 122°17'4 3.9
2014-Oct-21 23:33N 38°02' W 122°21'4 4.3
2014-Oct-21 22:33N 37°59' W 122°25'4 3.7
2014-Oct-21 21:33N 37°56' W 122°25'0 0.2
2014-Oct-21 20:32N 37°55' W 122°25'0 0.0
2014-Oct-21 19:33N 37°55' W 122°25'3 2.9
2014-Oct-21 18:33N 37°58' W 122°26'1 1.1
2014-Oct-21 17:32N 37°59' W 122°27'0 0.0
2014-Oct-21 16:29N 37°59' W 122°27'0 0.0
2014-Oct-21 15:32N 37°59' W 122°27'0 0.0
2014-Oct-21 14:29N 37°59' W 122°27'0 0.1
2014-Oct-21 13:33N 37°59' W 122°27'0 0.1
2014-Oct-21 12:32N 37°59' W 122°26'0 0.0
2014-Oct-21 11:33N 37°59' W 122°26'2 1.8
2014-Oct-21 10:33N 37°57' W 122°26'2 1.8
2014-Oct-21 09:33N 37°56' W 122°25'3 2.7
2014-Oct-21 08:32N 37°58' W 122°26'1 0.9
2014-Oct-21 07:33N 37°59' W 122°26'0 0.0
2014-Oct-21 06:30N 37°59' W 122°26'0 0.0
2014-Oct-21 05:33N 37°59' W 122°26'0 0.0
2014-Oct-21 04:30N 37°59' W 122°26'0 0.0
2014-Oct-21 03:33N 37°59' W 122°26'0 0.0
2014-Oct-21 02:30N 37°59' W 122°26'0 0.1
2014-Oct-21 01:33N 37°59' W 122°26'6 5.9
2014-Oct-21 00:33N 38°02' W 122°20'9 8.9
2014-Oct-20 23:32N 38°02' W 122°09'1 0.1
2014-Oct-20 17:10N 38°02' W 122°08'5 7.5
2014-Oct-20 16:33N 38°04' W 122°13'7 7.3
2014-Oct-20 15:33N 38°02' W 122°22'6 6.5
2014-Oct-20 14:33N 37°55' W 122°25'0 0.3
2014-Oct-20 13:31N 37°55' W 122°25'0 0.0
2014-Oct-20 12:31N 37°55' W 122°25'0 0.0
2014-Oct-20 11:31N 37°55' W 122°25'0 0.0
2014-Oct-20 10:31N 37°55' W 122°25'0 0.0
2014-Oct-20 09:31N 37°55' W 122°25'0 0.0
2014-Oct-20 08:31N 37°55' W 122°25'0 0.0
2014-Oct-20 07:31N 37°55' W 122°25'0 0.0
2014-Oct-20 06:31N 37°55' W 122°25'0 0.0
2014-Oct-20 05:31N 37°55' W 122°25'2 2.1
2014-Oct-20 04:33N 37°54' W 122°22'0 0.0
2014-Oct-20 03:33N 37°54' W 122°22'0 0.0
2014-Oct-20 02:33N 37°54' W 122°22'0 0.0
2014-Oct-20 01:33N 37°54' W 122°22'0 0.0
2014-Oct-20 00:33N 37°54' W 122°22'2 2.5
2014-Oct-19 23:34N 37°56' W 122°25'4 3.5
2014-Oct-19 22:31N 37°59' W 122°26'0 0.0
2014-Oct-19 21:28N 37°59' W 122°26'0 0.0
2014-Oct-19 20:31N 37°59' W 122°26'0 0.0
2014-Oct-19 19:28N 37°59' W 122°26'0 0.1
2014-Oct-19 18:31N 37°59' W 122°26'0 0.0
2014-Oct-19 17:31N 37°59' W 122°26'0 0.0
2014-Oct-19 16:31N 37°59' W 122°26'0 0.0
2014-Oct-19 15:31N 37°59' W 122°26'0 0.0
2014-Oct-19 14:31N 37°59' W 122°26'0 0.0
2014-Oct-19 13:28N 37°59' W 122°26'0 0.1
2014-Oct-19 12:31N 37°59' W 122°26'0 0.0
2014-Oct-19 11:31N 37°59' W 122°26'0 0.0
2014-Oct-19 10:31N 37°59' W 122°26'0 0.0
2014-Oct-19 09:31N 37°59' W 122°26'0 0.0
2014-Oct-19 08:31N 37°59' W 122°26'0 0.0
2014-Oct-19 07:31N 37°59' W 122°26'1 1.0
2014-Oct-19 06:33N 37°60' W 122°25'7 7.2
2014-Oct-19 05:33N 38°03' W 122°17'6 6.1
2014-Oct-19 04:34N 38°02' W 122°10'8 6.7
2014-Oct-19 03:25N 38°04' W 122°00'5 1.8
2014-Oct-19 00:19N 38°03' W 121°53'14 4.7
2014-Oct-18 21:24N 38°03' W 122°11'5 5.5
2014-Oct-18 20:33N 38°03' W 122°17'6 6.1
2014-Oct-18 19:33N 38°01' W 122°24'5 5.2
2014-Oct-18 18:34N 37°56' W 122°25'0 0.5
2014-Oct-18 17:33N 37°55' W 122°25'0 0.0
2014-Oct-18 16:33N 37°55' W 122°25'0 0.0
2014-Oct-18 15:33N 37°55' W 122°25'0 0.0
2014-Oct-18 14:33N 37°55' W 122°25'0 0.0
2014-Oct-18 13:33N 37°55' W 122°25'0 0.0
2014-Oct-18 12:33N 37°55' W 122°25'0 0.0
2014-Oct-18 11:33N 37°55' W 122°25'2 1.8
2014-Oct-18 10:33N 37°53' W 122°25'4 4.3
2014-Oct-18 09:33N 37°50' W 122°22'6 6.3
2014-Oct-18 08:34N 37°56' W 122°25'0 0.5
2014-Oct-18 07:33N 37°56' W 122°25'3 3.2
2014-Oct-18 06:31N 37°59' W 122°26'0 0.0
2014-Oct-18 05:31N 37°59' W 122°26'0 0.1
2014-Oct-18 04:31N 37°59' W 122°26'0 0.0
2014-Oct-18 03:31N 37°59' W 122°26'0 0.0
2014-Oct-18 02:31N 37°59' W 122°26'0 0.0
2014-Oct-18 01:31N 37°59' W 122°26'0 0.0
2014-Oct-18 00:19N 37°59' W 122°26'3 4.1
2014-Oct-17 23:33N 38°01' W 122°23'9 8.8
2014-Oct-17 22:33N 38°03' W 122°12'16 3.2
2014-Oct-17 17:32N 38°04' W 121°52'8 7.2
2014-Oct-17 16:25N 38°04' W 122°02'7 7.1
2014-Oct-17 15:27N 38°03' W 122°11'7 7.5
2014-Oct-17 14:33N 38°03' W 122°19'7 7.1
2014-Oct-17 13:33N 37°58' W 122°26'2 1.7
2014-Oct-17 12:33N 37°56' W 122°26'3 3.1
2014-Oct-17 11:32N 37°59' W 122°26'0 0.1
2014-Oct-17 10:32N 37°59' W 122°26'0 0.0
2014-Oct-17 09:32N 37°59' W 122°26'0 0.0
2014-Oct-17 08:32N 37°59' W 122°26'0 0.0
2014-Oct-17 07:29N 37°59' W 122°26'0 0.0
2014-Oct-17 06:32N 37°59' W 122°26'0 0.0
2014-Oct-17 05:29N 37°59' W 122°26'0 0.0
2014-Oct-17 04:32N 37°59' W 122°26'0 0.1
2014-Oct-17 03:32N 37°59' W 122°26'0 0.0
2014-Oct-17 02:32N 37°59' W 122°26'0 0.0
2014-Oct-17 01:32N 37°59' W 122°26'0 0.0
2014-Oct-17 00:32N 37°59' W 122°26'0 0.0
2014-Oct-16 23:32N 37°59' W 122°26'0 0.0
2014-Oct-16 22:32N 37°59' W 122°26'0 0.1
2014-Oct-16 21:32N 37°59' W 122°26'1 0.7
2014-Oct-16 20:34N 37°59' W 122°26'8 8.3
2014-Oct-16 19:33N 38°03' W 122°16'14 7.1
2014-Oct-16 17:33N 38°03' W 121°58'6 5.6
2014-Oct-16 16:33N 38°04' W 121°51'2 0.7
2014-Oct-16 13:33N 38°03' W 121°54'12 5.8
2014-Oct-16 11:31N 38°02' W 122°08'5 5.3
2014-Oct-16 10:33N 38°04' W 122°15'5 5.0
2014-Oct-16 09:33N 38°02' W 122°21'5 5.3
2014-Oct-16 08:33N 37°59' W 122°26'3 3.3
2014-Oct-16 07:33N 37°55' W 122°25'2 2.1
2014-Oct-16 06:33N 37°54' W 122°22'0 0.0
2014-Oct-16 05:33N 37°54' W 122°22'0 0.0
2014-Oct-16 04:33N 37°54' W 122°22'0 0.0
2014-Oct-16 03:33N 37°54' W 122°22'0 0.0
2014-Oct-16 02:33N 37°54' W 122°22'0 0.0
2014-Oct-16 01:33N 37°54' W 122°22'0 0.0
2014-Oct-16 00:33N 37°54' W 122°22'0 0.0
2014-Oct-15 23:33N 37°54' W 122°22'0 0.0
2014-Oct-15 22:33N 37°54' W 122°22'0 0.0
2014-Oct-15 21:33N 37°54' W 122°22'1 1.0
2014-Oct-15 20:33N 37°54' W 122°24'4 4.1
2014-Oct-15 19:33N 37°58' W 122°26'1 0.8
2014-Oct-15 18:25N 37°59' W 122°26'0 0.0
2014-Oct-15 17:28N 37°59' W 122°26'2 2.6
2014-Oct-15 16:33N 38°00' W 122°24'7 6.9
2014-Oct-15 15:33N 38°03' W 122°16'6 5.8
2014-Oct-15 14:33N 38°02' W 122°09'3 0.4
2014-Oct-15 06:33N 38°03' W 122°13'4 4.3
2014-Oct-15 05:33N 38°03' W 122°18'5 4.6
2014-Oct-15 04:33N 38°01' W 122°23'3 3.2
2014-Oct-15 03:33N 37°59' W 122°26'5 5.4
2014-Oct-15 02:33N 37°54' W 122°22'0 0.0
2014-Oct-15 01:33N 37°54' W 122°22'0 0.0
2014-Oct-15 00:33N 37°54' W 122°22'4 4.0
2014-Oct-14 23:33N 37°51' W 122°24'1 0.7
2014-Oct-14 22:33N 37°50' W 122°24'5 4.9
2014-Oct-14 21:33N 37°55' W 122°25'5 5.2
2014-Oct-14 20:33N 37°60' W 122°24'7 6.9
2014-Oct-14 19:33N 38°03' W 122°17'20 3.1
2014-Oct-14 13:20N 38°04' W 121°52'3 2.9
2014-Oct-14 12:17N 38°03' W 121°56'3 4.5
2014-Oct-14 11:33N 38°04' W 121°60'6 5.2
2014-Oct-14 10:19N 38°02' W 122°08'3 4.4
2014-Oct-14 09:33N 38°03' W 122°12'4 4.2
2014-Oct-14 08:33N 38°03' W 122°17'4 4.0
2014-Oct-14 07:33N 38°02' W 122°22'4 4.3
2014-Oct-14 06:34N 37°59' W 122°26'1 0.7
2014-Oct-14 05:33N 37°60' W 122°25'9 8.9
2014-Oct-14 04:33N 38°04' W 122°15'8 8.0
2014-Oct-14 03:33N 38°03' W 122°05'7 6.8
2014-Oct-14 02:33N 38°03' W 121°56'4 4.0
2014-Oct-14 01:30N 38°04' W 121°51'0 0.1
2014-Oct-13 22:26N 38°04' W 121°52'13 5.4
2014-Oct-13 20:05N 38°02' W 122°08'3 4.7
2014-Oct-13 19:33N 38°03' W 122°11'5 4.7
2014-Oct-13 18:33N 38°03' W 122°17'5 4.8
2014-Oct-13 17:33N 38°01' W 122°22'4 4.1
2014-Oct-13 16:33N 37°59' W 122°26'5 5.3
2014-Oct-13 15:33N 38°02' W 122°21'8 7.9
2014-Oct-13 14:33N 38°03' W 122°11'7 6.6
2014-Oct-13 13:29N 38°04' W 122°02'6 6.7
2014-Oct-13 12:33N 38°03' W 121°54'2 1.1
2014-Oct-13 10:29N 38°04' W 121°52'5 5.4
2014-Oct-13 09:29N 38°03' W 121°58'5 5.5
2014-Oct-13 08:33N 38°03' W 122°05'5 4.8
2014-Oct-13 07:33N 38°03' W 122°11'5 4.5
2014-Oct-13 06:33N 38°03' W 122°17'4 4.4
2014-Oct-13 05:33N 38°02' W 122°22'5 4.7
2014-Oct-13 04:33N 37°59' W 122°26'0 0.3
2014-Oct-13 03:33N 37°59' W 122°26'1 0.5
2014-Oct-13 02:33N 37°59' W 122°27'0 0.0
2014-Oct-13 01:33N 37°59' W 122°27'3 3.4
2014-Oct-13 00:33N 37°56' W 122°26'  

Dump ship's entire track history